createdAt,value
2018-12-14T00:00:20.807Z,1.80
2018-12-14T00:02:48.947Z,1.90
2018-12-14T00:05:17.077Z,1.80
2018-12-14T00:07:45.278Z,1.80
2018-12-14T00:10:13.417Z,1.90
2018-12-14T00:12:41.646Z,1.90
2018-12-14T00:15:09.953Z,1.80
2018-12-14T00:17:38.172Z,1.90
2018-12-14T00:20:08.410Z,1.90
2018-12-14T00:22:36.638Z,1.80
2018-12-14T00:25:05.710Z,1.90
2018-12-14T00:27:34.107Z,1.90
2018-12-14T00:30:02.455Z,1.90
2018-12-14T00:32:30.760Z,1.80
2018-12-14T00:34:58.899Z,1.80
2018-12-14T00:37:27.190Z,1.80
2018-12-14T00:39:55.329Z,1.80
2018-12-14T00:42:23.553Z,1.80
2018-12-14T00:44:51.693Z,1.80
2018-12-14T00:47:19.950Z,1.80
2018-12-14T00:49:48.177Z,1.80
2018-12-14T00:52:16.408Z,1.80
2018-12-14T00:54:44.557Z,1.80
2018-12-14T00:57:12.712Z,1.70
2018-12-14T00:59:41.066Z,1.70
2018-12-14T01:02:14.697Z,1.80
2018-12-14T01:04:42.838Z,1.80
2018-12-14T01:07:11.068Z,1.70
2018-12-14T01:09:39.284Z,1.80
2018-12-14T01:12:07.422Z,1.80
2018-12-14T01:14:35.576Z,1.80
2018-12-14T01:17:03.793Z,1.80
2018-12-14T01:19:31.983Z,1.70
2018-12-14T01:22:00.138Z,1.70
2018-12-14T01:24:28.358Z,1.70
2018-12-14T01:26:56.517Z,1.70
2018-12-14T01:29:24.634Z,1.70
2018-12-14T01:31:52.871Z,1.70
2018-12-14T01:34:21.054Z,1.70
2018-12-14T01:36:49.202Z,1.70
2018-12-14T01:39:17.343Z,1.70
2018-12-14T01:41:45.559Z,1.60
2018-12-14T01:44:13.705Z,1.60
2018-12-14T01:46:41.929Z,1.60
2018-12-14T01:49:10.079Z,1.60
2018-12-14T01:51:38.379Z,1.60
2018-12-14T01:54:06.504Z,1.60
2018-12-14T01:56:34.730Z,1.60
2018-12-14T01:59:03.041Z,1.70
2018-12-14T02:01:31.325Z,1.60
2018-12-14T02:03:59.542Z,1.70
2018-12-14T02:06:27.851Z,1.70
2018-12-14T02:08:56.197Z,1.70
2018-12-14T02:11:24.401Z,1.60
2018-12-14T02:13:52.631Z,1.60
2018-12-14T02:16:20.907Z,1.60
2018-12-14T02:18:49.142Z,1.60
2018-12-14T02:21:17.638Z,1.60
2018-12-14T02:23:45.770Z,1.60
2018-12-14T02:26:14.063Z,1.50
2018-12-14T02:28:42.290Z,1.50
2018-12-14T02:31:10.438Z,1.50
2018-12-14T02:33:38.585Z,1.50
2018-12-14T02:36:06.792Z,1.50
2018-12-14T02:38:34.938Z,1.40
2018-12-14T02:41:03.228Z,1.40
2018-12-14T02:43:31.534Z,1.40
2018-12-14T02:45:59.737Z,1.40
2018-12-14T02:48:27.894Z,1.40
2018-12-14T02:50:56.034Z,1.40
2018-12-14T02:53:24.208Z,1.30
2018-12-14T02:55:52.481Z,1.30
2018-12-14T02:58:20.642Z,1.30
2018-12-14T03:00:48.785Z,1.30
2018-12-14T03:03:16.947Z,1.30
2018-12-14T03:05:45.156Z,1.30
2018-12-14T03:08:13.552Z,1.30
2018-12-14T03:10:41.778Z,1.30
2018-12-14T03:13:10.018Z,1.30
2018-12-14T03:15:38.234Z,1.30
2018-12-14T03:18:06.458Z,1.30
2018-12-14T03:20:34.615Z,1.30
2018-12-14T03:23:02.870Z,1.30
2018-12-14T03:25:31.081Z,1.20
2018-12-14T03:27:59.249Z,1.30
2018-12-14T03:30:27.480Z,1.30
2018-12-14T03:32:55.891Z,1.20
2018-12-14T03:35:24.194Z,1.20
2018-12-14T03:37:52.359Z,1.20
2018-12-14T03:40:20.505Z,1.20
2018-12-14T03:42:48.675Z,1.20
2018-12-14T03:45:16.806Z,1.20
2018-12-14T03:47:44.971Z,1.20
2018-12-14T03:50:13.182Z,1.20
2018-12-14T03:52:41.347Z,1.20
2018-12-14T03:55:09.543Z,1.20
2018-12-14T03:57:37.670Z,1.20
2018-12-14T04:00:09.709Z,1.20
2018-12-14T04:02:38.049Z,1.20
2018-12-14T04:05:06.361Z,1.20
2018-12-14T04:07:34.570Z,1.20
2018-12-14T04:10:02.910Z,1.20
2018-12-14T04:12:31.058Z,1.20
2018-12-14T04:14:59.246Z,1.20
2018-12-14T04:17:27.456Z,1.20
2018-12-14T04:19:55.775Z,1.20
2018-12-14T04:22:23.995Z,1.10
2018-12-14T04:24:52.226Z,1.10
2018-12-14T04:27:20.390Z,1.20
2018-12-14T04:29:48.539Z,1.20
2018-12-14T04:32:16.705Z,1.20
2018-12-14T04:34:44.919Z,1.20
2018-12-14T04:37:13.049Z,1.20
2018-12-14T04:39:41.184Z,1.20
2018-12-14T04:42:09.382Z,1.20
2018-12-14T04:44:37.530Z,1.10
2018-12-14T04:47:06.103Z,1.20
2018-12-14T04:49:34.315Z,1.20
2018-12-14T04:52:05.035Z,1.20
2018-12-14T04:54:33.240Z,1.20
2018-12-14T04:57:01.371Z,1.10
2018-12-14T04:59:29.518Z,1.10
2018-12-14T05:01:57.662Z,1.20
2018-12-14T05:04:25.890Z,1.10
2018-12-14T05:06:54.022Z,1.20
2018-12-14T05:09:22.185Z,1.10
2018-12-14T05:11:50.301Z,1.10
2018-12-14T05:14:20.955Z,1.20
2018-12-14T05:16:49.098Z,1.10
2018-12-14T05:19:17.257Z,1.10
2018-12-14T05:21:45.664Z,1.10
2018-12-14T05:24:13.813Z,1.10
2018-12-14T05:26:42.021Z,1.20
2018-12-14T05:29:10.186Z,1.10
2018-12-14T05:31:38.325Z,1.10
2018-12-14T05:34:06.462Z,1.10
2018-12-14T05:36:34.668Z,1.10
2018-12-14T05:39:03.648Z,1.10
2018-12-14T05:41:31.794Z,1.10
2018-12-14T05:43:59.942Z,1.10
2018-12-14T05:46:28.234Z,1.10
2018-12-14T05:48:56.421Z,1.10
2018-12-14T05:51:24.617Z,1.10
2018-12-14T05:53:52.790Z,1.00
2018-12-14T05:56:21.006Z,1.00
2018-12-14T05:58:49.237Z,1.00
2018-12-14T06:01:17.481Z,0.90
2018-12-14T06:03:45.794Z,0.90
2018-12-14T06:06:14.037Z,0.90
2018-12-14T06:08:42.194Z,0.90
2018-12-14T06:11:13.514Z,0.90
2018-12-14T06:13:41.733Z,0.90
2018-12-14T06:16:09.954Z,0.90
2018-12-14T06:18:38.173Z,1.00
2018-12-14T06:21:06.335Z,1.00
2018-12-14T06:23:34.470Z,1.00
2018-12-14T06:26:02.693Z,1.00
2018-12-14T06:28:30.907Z,1.00
2018-12-14T06:30:59.074Z,1.00
2018-12-14T06:33:27.210Z,1.00
2018-12-14T06:35:55.369Z,1.00
2018-12-14T06:38:23.584Z,0.90
2018-12-14T06:40:51.793Z,0.90
2018-12-14T06:43:19.999Z,0.90
2018-12-14T06:45:48.225Z,0.90
2018-12-14T06:48:16.353Z,0.90
2018-12-14T06:50:44.642Z,0.80
2018-12-14T06:53:13.014Z,0.80
2018-12-14T06:55:41.241Z,0.80
2018-12-14T06:58:09.444Z,0.70
2018-12-14T07:00:37.667Z,0.70
2018-12-14T07:03:05.863Z,0.70
2018-12-14T07:05:34.065Z,0.60
2018-12-14T07:08:02.197Z,0.60
2018-12-14T07:10:30.342Z,0.60
2018-12-14T07:12:58.630Z,0.50
2018-12-14T07:15:26.789Z,0.50
2018-12-14T07:17:55.021Z,0.50
2018-12-14T07:20:23.326Z,0.60
2018-12-14T07:22:51.545Z,0.60
2018-12-14T07:25:19.849Z,0.60
2018-12-14T07:27:48.051Z,0.60
2018-12-14T07:30:16.209Z,0.60
2018-12-14T07:32:44.345Z,0.70
2018-12-14T07:35:12.557Z,0.70
2018-12-14T07:37:40.699Z,0.70
2018-12-14T07:40:08.991Z,0.70
2018-12-14T07:42:37.119Z,0.70
2018-12-14T07:45:05.747Z,0.80
2018-12-14T07:47:33.956Z,0.80
2018-12-14T07:50:02.204Z,0.80
2018-12-14T07:52:30.407Z,0.80
2018-12-14T07:54:58.551Z,0.80
2018-12-14T07:57:26.761Z,0.80
2018-12-14T07:59:54.915Z,0.80
2018-12-14T08:02:23.191Z,0.80
2018-12-14T08:04:51.433Z,0.80
2018-12-14T08:07:19.654Z,0.80
2018-12-14T08:09:47.786Z,0.80
2018-12-14T08:12:16.011Z,0.80
2018-12-14T08:14:44.171Z,0.80
2018-12-14T08:17:12.348Z,0.80
2018-12-14T08:19:40.494Z,0.80
2018-12-14T08:22:08.729Z,0.80
2018-12-14T08:24:36.895Z,0.80
2018-12-14T08:27:05.057Z,0.90
2018-12-14T08:29:33.203Z,0.90
2018-12-14T08:32:01.364Z,0.90
2018-12-14T08:34:29.524Z,0.90
2018-12-14T08:36:57.685Z,0.90
2018-12-14T08:39:25.934Z,1.00
2018-12-14T08:41:54.101Z,1.20
2018-12-14T08:44:22.322Z,1.40
2018-12-14T08:46:50.569Z,1.70
2018-12-14T08:49:18.741Z,1.80
2018-12-14T08:51:46.984Z,1.90
2018-12-14T08:54:16.150Z,2.30
2018-12-14T08:56:44.395Z,2.40
2018-12-14T08:59:12.612Z,2.50
2018-12-14T09:01:40.836Z,2.30
2018-12-14T09:04:08.998Z,2.20
2018-12-14T09:06:37.229Z,2.00
2018-12-14T09:09:06.496Z,1.90
2018-12-14T09:11:34.750Z,1.70
2018-12-14T09:14:02.993Z,1.70
2018-12-14T09:16:31.327Z,1.70
2018-12-14T09:18:59.645Z,1.70
2018-12-14T09:21:27.885Z,1.70
2018-12-14T09:23:56.053Z,1.70
2018-12-14T09:26:24.289Z,1.90
2018-12-14T09:28:52.517Z,2.00
2018-12-14T09:31:21.233Z,2.50
2018-12-14T09:33:49.385Z,3.20
2018-12-14T09:36:17.551Z,3.50
2018-12-14T09:38:45.769Z,3.60
2018-12-14T09:41:16.365Z,3.40
2018-12-14T09:43:44.178Z,3.20
2018-12-14T09:46:12.430Z,2.90
2018-12-14T09:48:40.654Z,2.60
2018-12-14T09:51:12.323Z,2.40
2018-12-14T09:53:39.031Z,2.40
2018-12-14T09:56:07.262Z,2.30
2018-12-14T09:58:35.410Z,2.10
2018-12-14T10:01:03.552Z,2.10
2018-12-14T10:03:31.776Z,2.10
2018-12-14T10:05:59.994Z,2.20
2018-12-14T10:08:28.239Z,2.20
2018-12-14T10:10:56.547Z,2.30
2018-12-14T10:13:24.860Z,2.30
2018-12-14T10:15:54.244Z,2.40
2018-12-14T10:18:22.385Z,2.40
2018-12-14T10:20:50.529Z,2.30
2018-12-14T10:23:18.800Z,2.30
2018-12-14T10:25:47.027Z,2.30
2018-12-14T10:28:15.458Z,2.40
2018-12-14T10:30:43.733Z,2.50
2018-12-14T10:33:11.967Z,2.50
2018-12-14T10:35:40.182Z,2.70
2018-12-14T10:38:08.338Z,3.00
2018-12-14T10:40:36.540Z,3.40
2018-12-14T10:43:04.777Z,3.50
2018-12-14T10:45:33.049Z,3.80
2018-12-14T10:48:01.194Z,4.60
2018-12-14T10:50:38.565Z,5.30
2018-12-14T10:53:01.597Z,5.90
2018-12-14T10:55:29.893Z,6.20
2018-12-14T10:57:58.337Z,6.70
2018-12-14T11:00:32.159Z,6.80
2018-12-14T11:03:00.395Z,6.90
2018-12-14T11:05:28.654Z,7.40
2018-12-14T11:07:56.802Z,7.30
2018-12-14T11:10:24.935Z,7.10
2018-12-14T11:12:53.172Z,7.30
2018-12-14T11:15:21.306Z,6.90
2018-12-14T11:17:49.446Z,6.80
2018-12-14T11:20:17.691Z,6.50
2018-12-14T11:22:45.838Z,6.60
2018-12-14T11:25:13.966Z,6.50
2018-12-14T11:27:42.106Z,6.70
2018-12-14T11:30:10.911Z,6.40
2018-12-14T11:32:39.208Z,6.10
2018-12-14T11:35:07.485Z,5.80
2018-12-14T11:37:35.779Z,5.90
2018-12-14T11:40:04.630Z,5.80
2018-12-14T11:42:32.791Z,5.90
2018-12-14T11:45:00.922Z,6.00
2018-12-14T11:47:29.070Z,5.90
2018-12-14T11:49:57.195Z,6.00
2018-12-14T11:52:25.350Z,5.70
2018-12-14T11:54:53.489Z,5.20
2018-12-14T11:57:21.706Z,5.10
2018-12-14T11:59:49.921Z,4.90
2018-12-14T12:02:18.051Z,4.70
2018-12-14T12:04:46.197Z,4.40
2018-12-14T12:07:14.479Z,4.50
2018-12-14T12:09:42.632Z,4.50
2018-12-14T12:12:10.771Z,4.60
2018-12-14T12:14:38.918Z,4.50
2018-12-14T12:17:07.129Z,4.50
2018-12-14T12:19:35.290Z,4.50
2018-12-14T12:22:03.638Z,4.70
2018-12-14T12:24:31.846Z,4.70
2018-12-14T12:26:59.974Z,4.80
2018-12-14T12:29:28.116Z,5.10
2018-12-14T12:31:56.246Z,5.40
2018-12-14T12:34:24.386Z,5.30
2018-12-14T12:36:52.595Z,5.40
2018-12-14T12:39:20.742Z,5.20
2018-12-14T12:41:48.950Z,5.40
2018-12-14T12:44:17.098Z,5.40
2018-12-14T12:46:45.405Z,5.10
2018-12-14T12:49:13.718Z,5.30
2018-12-14T12:51:42.004Z,5.40
2018-12-14T12:54:10.158Z,5.20
2018-12-14T12:56:38.769Z,5.10
2018-12-14T12:59:06.967Z,5.00
2018-12-14T13:01:35.093Z,4.90
2018-12-14T13:04:03.237Z,4.70
2018-12-14T13:06:31.497Z,4.30
2018-12-14T13:08:59.710Z,4.10
2018-12-14T13:11:27.849Z,4.40
2018-12-14T13:13:56.007Z,4.40
2018-12-14T13:16:24.308Z,4.70
2018-12-14T13:18:52.463Z,4.60
2018-12-14T13:21:20.590Z,4.20
2018-12-14T13:23:48.741Z,3.80
2018-12-14T13:26:16.894Z,3.60
2018-12-14T13:28:45.134Z,3.50
2018-12-14T13:31:13.418Z,3.40
2018-12-14T13:33:41.650Z,3.30
2018-12-14T13:36:09.889Z,3.20
2018-12-14T13:38:44.863Z,3.20
2018-12-14T13:41:13.074Z,3.10
2018-12-14T13:43:41.324Z,3.00
2018-12-14T13:46:09.540Z,3.00
2018-12-14T13:48:37.713Z,2.90
2018-12-14T13:51:05.921Z,2.70
2018-12-14T13:53:34.080Z,2.70
2018-12-14T13:56:02.341Z,2.60
2018-12-14T13:58:30.498Z,2.60
2018-12-14T14:00:58.734Z,2.60
2018-12-14T14:03:26.948Z,2.50
2018-12-14T14:05:55.102Z,2.50
2018-12-14T14:08:23.253Z,2.40
2018-12-14T14:10:51.397Z,2.40
2018-12-14T14:13:19.563Z,2.30
2018-12-14T14:15:50.654Z,2.30
2018-12-14T14:18:17.948Z,2.20
2018-12-14T14:20:46.109Z,2.20
2018-12-14T14:23:14.246Z,2.20
2018-12-14T14:25:42.602Z,2.20
2018-12-14T14:28:10.751Z,2.20
2018-12-14T14:30:38.986Z,2.10
2018-12-14T14:33:07.228Z,2.10
2018-12-14T14:35:35.395Z,2.00
2018-12-14T14:38:03.623Z,2.00
2018-12-14T14:40:31.764Z,2.00
2018-12-14T14:42:59.982Z,2.00
2018-12-14T14:45:28.138Z,2.00
2018-12-14T14:47:56.295Z,1.90
2018-12-14T14:50:24.659Z,2.00
2018-12-14T14:52:52.847Z,1.90
2018-12-14T14:55:21.086Z,1.90
2018-12-14T14:57:49.500Z,1.90
2018-12-14T15:00:17.756Z,1.90
2018-12-14T15:02:45.961Z,1.90
2018-12-14T15:05:14.191Z,1.80
2018-12-14T15:07:42.432Z,1.80
2018-12-14T15:10:10.610Z,1.80
2018-12-14T15:12:38.802Z,1.80
2018-12-14T15:15:07.487Z,1.70
2018-12-14T15:17:35.727Z,1.80
2018-12-14T15:20:04.157Z,1.70
2018-12-14T15:22:32.526Z,1.80
2018-12-14T15:25:00.681Z,1.70
2018-12-14T15:27:28.837Z,1.80
2018-12-14T15:29:57.086Z,1.70
2018-12-14T15:32:25.617Z,1.70
2018-12-14T15:34:53.777Z,1.70
2018-12-14T15:37:21.935Z,1.70
2018-12-14T15:39:50.088Z,1.70
2018-12-14T15:42:18.230Z,1.60
2018-12-14T15:44:46.428Z,1.60
2018-12-14T15:47:14.662Z,1.60
2018-12-14T15:49:42.830Z,1.60
2018-12-14T15:52:10.974Z,1.60
2018-12-14T15:54:39.135Z,1.60
2018-12-14T15:57:07.281Z,1.50
2018-12-14T15:59:35.549Z,1.50
2018-12-14T16:02:03.834Z,1.50
2018-12-14T16:04:32.049Z,1.50
2018-12-14T16:07:00.298Z,1.50
2018-12-14T16:09:28.449Z,1.50
2018-12-14T16:11:56.687Z,1.50
2018-12-14T16:14:25.063Z,1.40
2018-12-14T16:16:53.412Z,1.40
2018-12-14T16:19:21.712Z,1.30
2018-12-14T16:21:49.908Z,1.30
2018-12-14T16:24:18.288Z,1.30
2018-12-14T16:26:46.630Z,1.20
2018-12-14T16:29:14.865Z,1.20
2018-12-14T16:31:42.989Z,1.20
2018-12-14T16:34:11.131Z,1.20
2018-12-14T16:36:39.269Z,1.20
2018-12-14T16:39:07.705Z,1.20
2018-12-14T16:41:35.971Z,1.20
2018-12-14T16:44:04.251Z,1.20
2018-12-14T16:46:32.570Z,1.20
2018-12-14T16:49:00.847Z,1.20
2018-12-14T16:51:29.065Z,1.20
2018-12-14T16:54:04.686Z,1.20
2018-12-14T16:56:32.992Z,1.20
2018-12-14T16:59:02.485Z,1.10
2018-12-14T17:01:30.774Z,1.10
2018-12-14T17:03:58.919Z,1.10
2018-12-14T17:06:27.181Z,1.10
2018-12-14T17:08:55.396Z,1.10
2018-12-14T17:11:23.528Z,1.00
2018-12-14T17:13:52.268Z,1.10
2018-12-14T17:16:20.538Z,1.10
2018-12-14T17:18:48.826Z,1.10
2018-12-14T17:21:17.022Z,1.10
2018-12-14T17:23:45.238Z,1.10
2018-12-14T17:26:13.460Z,1.20
2018-12-14T17:28:41.606Z,1.20
2018-12-14T17:31:09.870Z,1.10
2018-12-14T17:33:38.003Z,1.20
2018-12-14T17:36:06.249Z,1.20
2018-12-14T17:38:34.401Z,1.20
2018-12-14T17:41:02.550Z,1.20
2018-12-14T17:43:34.173Z,1.20
2018-12-14T17:46:03.080Z,1.20
2018-12-14T17:48:32.115Z,1.20
2018-12-14T17:51:00.558Z,1.20
2018-12-14T17:53:28.907Z,1.20
2018-12-14T17:55:57.071Z,1.10
2018-12-14T17:58:25.764Z,1.20
2018-12-14T18:00:58.399Z,1.20
2018-12-14T18:03:25.386Z,1.20
2018-12-14T18:05:53.529Z,1.20
2018-12-14T18:08:21.710Z,1.20
2018-12-14T18:10:56.590Z,1.10
2018-12-14T18:13:24.719Z,1.20
2018-12-14T18:15:52.937Z,1.20
2018-12-14T18:18:21.062Z,1.10
2018-12-14T18:20:49.261Z,1.10
2018-12-14T18:23:17.460Z,1.10
2018-12-14T18:25:45.690Z,1.10
2018-12-14T18:28:13.861Z,1.10
2018-12-14T18:30:48.626Z,1.10
2018-12-14T18:33:16.766Z,1.10
2018-12-14T18:35:44.925Z,1.10
2018-12-14T18:38:13.096Z,1.10
2018-12-14T18:40:47.699Z,1.10
2018-12-14T18:43:15.879Z,1.10
2018-12-14T18:45:43.998Z,1.00
2018-12-14T18:48:12.256Z,1.10
2018-12-14T18:50:40.478Z,1.00
2018-12-14T18:53:08.620Z,1.00
2018-12-14T18:55:36.754Z,1.00
2018-12-14T18:58:05.405Z,1.00
2018-12-14T19:00:33.826Z,0.90
2018-12-14T19:03:02.266Z,0.90
2018-12-14T19:05:31.375Z,0.90
2018-12-14T19:07:59.532Z,0.90
2018-12-14T19:10:27.663Z,0.80
2018-12-14T19:12:55.867Z,0.80
2018-12-14T19:15:24.724Z,0.80
2018-12-14T19:17:53.212Z,0.80
2018-12-14T19:20:21.498Z,0.70
2018-12-14T19:22:50.453Z,0.70
2018-12-14T19:25:19.090Z,0.80
2018-12-14T19:27:47.599Z,0.70
2018-12-14T19:30:15.915Z,0.70
2018-12-14T19:32:46.151Z,0.70
2018-12-14T19:35:15.197Z,0.60
2018-12-14T19:37:44.013Z,0.60
2018-12-14T19:40:13.986Z,0.60
2018-12-14T19:42:42.555Z,0.60
2018-12-14T19:45:13.546Z,0.60
2018-12-14T19:47:42.297Z,0.60
2018-12-14T19:50:11.504Z,0.60
2018-12-14T19:52:40.283Z,0.50
2018-12-14T19:55:09.020Z,0.60
2018-12-14T19:57:38.250Z,0.60
2018-12-14T20:00:10.943Z,0.50
2018-12-14T20:02:40.143Z,0.50
2018-12-14T20:05:09.557Z,0.50
2018-12-14T20:07:38.318Z,0.50
2018-12-14T20:10:07.650Z,0.50
2018-12-14T20:12:36.390Z,0.50
2018-12-14T20:15:06.346Z,0.50
2018-12-14T20:17:34.968Z,0.50
2018-12-14T20:20:03.481Z,0.50
2018-12-14T20:22:31.880Z,0.50
2018-12-14T20:25:00.274Z,0.50
2018-12-14T20:27:28.490Z,0.50
2018-12-14T20:29:56.690Z,0.50
2018-12-14T20:32:24.822Z,0.50
2018-12-14T20:34:53.554Z,0.50
2018-12-14T20:37:21.699Z,0.50
2018-12-14T20:39:49.941Z,0.40
2018-12-14T20:42:18.100Z,0.40
2018-12-14T20:44:46.339Z,0.40
2018-12-14T20:47:15.403Z,0.40
2018-12-14T20:49:47.312Z,0.40
2018-12-14T20:52:17.182Z,0.30
2018-12-14T20:54:46.502Z,0.40
2018-12-14T20:57:15.662Z,0.30
2018-12-14T20:59:44.849Z,0.30
2018-12-14T21:02:13.901Z,0.30
2018-12-14T21:04:42.614Z,0.30
2018-12-14T21:07:10.934Z,0.30
2018-12-14T21:09:39.926Z,0.30
2018-12-14T21:12:09.246Z,0.30
2018-12-14T21:14:38.277Z,0.30
2018-12-14T21:17:06.977Z,0.30
2018-12-14T21:19:35.184Z,0.30
2018-12-14T21:22:04.013Z,0.30
2018-12-14T21:24:32.281Z,0.30
2018-12-14T21:27:00.426Z,0.30
2018-12-14T21:29:28.634Z,0.30
2018-12-14T21:31:57.294Z,0.30
2018-12-14T21:34:25.487Z,0.40
2018-12-14T21:36:53.620Z,0.30
2018-12-14T21:39:23.319Z,0.30
2018-12-14T21:41:51.914Z,0.30
2018-12-14T21:44:20.832Z,0.30
2018-12-14T21:46:48.970Z,0.30
2018-12-14T21:49:17.140Z,0.30
2018-12-14T21:51:45.617Z,0.30
2018-12-14T21:54:14.638Z,0.30
2018-12-14T21:56:44.481Z,0.30
2018-12-14T21:59:12.907Z,0.30
2018-12-14T22:01:41.466Z,0.30
2018-12-14T22:04:10.562Z,0.30
2018-12-14T22:06:39.253Z,0.30
2018-12-14T22:09:09.908Z,0.30
2018-12-14T22:11:38.942Z,0.30
2018-12-14T22:14:07.808Z,0.30
2018-12-14T22:16:39.373Z,0.30
2018-12-14T22:19:07.498Z,0.30
2018-12-14T22:21:37.791Z,0.30
2018-12-14T22:24:06.545Z,0.30
2018-12-14T22:26:35.842Z,0.30
2018-12-14T22:29:04.835Z,0.30
2018-12-14T22:31:33.777Z,0.30
2018-12-14T22:34:02.502Z,0.30
2018-12-14T22:36:31.246Z,0.30
2018-12-14T22:38:59.718Z,0.20
2018-12-14T22:41:28.057Z,0.30
2018-12-14T22:43:56.736Z,0.20
2018-12-14T22:46:26.347Z,0.30
2018-12-14T22:48:55.288Z,0.30
2018-12-14T22:51:24.622Z,0.30
2018-12-14T22:53:53.331Z,0.30
2018-12-14T22:56:21.934Z,0.30
2018-12-14T22:58:50.638Z,0.30
2018-12-14T23:01:19.883Z,0.30
2018-12-14T23:03:48.990Z,0.30
2018-12-14T23:06:18.634Z,0.20
2018-12-14T23:08:47.287Z,0.30
2018-12-14T23:11:15.602Z,0.20
2018-12-14T23:13:44.082Z,0.20
2018-12-14T23:16:12.539Z,0.30
2018-12-14T23:18:41.258Z,0.30
2018-12-14T23:21:09.733Z,0.20
2018-12-14T23:23:38.652Z,0.20
2018-12-14T23:26:06.916Z,0.30
2018-12-14T23:28:35.413Z,0.30
2018-12-14T23:31:04.133Z,0.30
2018-12-14T23:33:33.321Z,0.20
2018-12-14T23:36:01.707Z,0.30
2018-12-14T23:38:30.692Z,0.20
2018-12-14T23:40:58.811Z,0.30
2018-12-14T23:43:27.303Z,0.30
2018-12-14T23:45:56.520Z,0.30
2018-12-14T23:48:25.080Z,0.20
2018-12-14T23:50:53.391Z,0.20
2018-12-14T23:53:22.117Z,0.30
2018-12-14T23:55:50.322Z,0.30
2018-12-14T23:58:19.354Z,0.20
